Time;durP1;ratioP1;P1;durP2;ratioP2;P2;SDS_P1;SDS_P2;PMS_P1;PMS_P2;Temp;Humidity;BMP_temperature;BMP_pressure;BME280_temperature;BME280_humidity;BME280_pressure;Samples;Min_cycle;Max_cycle;Signal;HPM_P1;HPM_P2
2021/04/18 00:04:23;;;;;;;14.13;5.90;;;12.10;68.90;;;;;;11999005;28;20045;-77
2021/04/18 00:10:11;;;;;;;19.58;6.85;;;12.10;68.70;;;;;;11991921;28;20041;-76
2021/04/18 00:15:58;;;;;;;14.65;5.78;;;12.00;69.30;;;;;;11990338;28;20056;-77
2021/04/18 00:21:45;;;;;;;16.05;5.85;;;12.00;69.30;;;;;;11991732;28;20060;-76
2021/04/18 00:27:31;;;;;;;13.23;5.70;;;12.00;69.00;;;;;;11995318;28;20704;-77
2021/04/18 00:33:18;;;;;;;13.65;6.10;;;12.00;68.80;;;;;;12000332;28;20048;-77
2021/04/18 00:39:06;;;;;;;13.35;5.50;;;12.00;69.40;;;;;;11992364;28;20045;-77
2021/04/18 00:44:52;;;;;;;13.65;6.68;;;11.90;69.30;;;;;;12000567;28;20061;-76
2021/04/18 08:53:03;;;;;;;24.38;12.68;;;11.90;82.00;;;;;;12123145;27;20340;-75
2021/04/18 08:58:49;;;;;;;28.65;13.38;;;12.00;82.10;;;;;;12126806;28;20052;-75
2021/04/18 09:04:37;;;;;;;28.88;12.82;;;12.20;82.50;;;;;;12125984;28;20044;-75
2021/04/18 09:10:24;;;;;;;26.75;13.20;;;12.40;80.70;;;;;;12125017;28;20044;-76
2021/04/18 09:16:22;;;;;;;30.52;12.48;;;12.50;79.40;;;;;;12126111;28;20052;-76
2021/04/18 09:22:11;;;;;;;29.13;12.15;;;12.60;79.60;;;;;;12133172;28;20055;-76
2021/04/18 09:28:00;;;;;;;30.52;12.65;;;12.70;78.90;;;;;;12134786;28;20047;-76
2021/04/18 09:34:00;;;;;;;25.13;13.48;;;12.80;78.60;;;;;;12123479;28;20518;-76
2021/04/18 09:39:51;;;;;;;25.23;11.75;;;12.70;77.60;;;;;;12122965;28;20406;-76
2021/04/18 09:45:38;;;;;;;29.02;11.98;;;12.80;76.90;;;;;;12122176;28;20120;-76
2021/04/18 09:51:24;;;;;;;23.42;12.13;;;12.90;76.80;;;;;;12129360;28;20050;-75
2021/04/18 09:57:19;;;;;;;27.40;12.40;;;12.70;76.50;;;;;;12120956;28;20085;-75
2021/04/18 10:03:13;;;;;;;20.17;11.48;;;12.80;76.40;;;;;;12097620;28;20055;-76
2021/04/18 10:09:02;;;;;;;31.05;12.07;;;12.80;75.90;;;;;;12092216;28;20141;-76
2021/04/18 10:15:04;;;;;;;25.17;11.50;;;13.20;76.20;;;;;;12092303;28;20059;-76
2021/04/18 10:20:52;;;;;;;25.85;12.00;;;13.20;74.20;;;;;;12090128;28;20048;-77
2021/04/18 10:26:38;;;;;;;23.42;11.57;;;13.30;72.90;;;;;;12079383;28;20048;-75
2021/04/18 10:32:25;;;;;;;24.15;11.82;;;13.60;73.60;;;;;;12083898;28;20044;-75
2021/04/18 10:38:16;;;;;;;21.13;11.23;;;13.70;72.50;;;;;;12087485;28;20059;-75
2021/04/18 10:44:02;;;;;;;24.65;11.95;;;14.00;73.50;;;;;;12085905;28;20143;-77
2021/04/18 10:49:49;;;;;;;22.42;11.48;;;14.00;72.20;;;;;;12085968;28;20048;-75
2021/04/18 10:55:36;;;;;;;23.05;12.15;;;14.00;71.60;;;;;;12086007;28;20729;-75
2021/04/18 11:01:23;;;;;;;25.30;11.00;;;14.20;69.00;;;;;;12081043;28;20047;-73
2021/04/18 11:07:10;;;;;;;24.40;11.40;;;14.20;69.90;;;;;;12088241;28;20113;-74
2021/04/18 11:12:57;;;;;;;23.58;13.02;;;14.30;70.00;;;;;;12087474;28;20055;-75
2021/04/18 11:18:43;;;;;;;20.90;11.77;;;14.40;70.90;;;;;;12082825;28;20044;-75
2021/04/18 11:24:30;;;;;;;25.60;12.20;;;14.30;69.80;;;;;;12080074;28;20056;-75
2021/04/18 11:30:18;;;;;;;24.80;11.45;;;14.90;72.00;;;;;;12081870;28;21018;-76
2021/04/18 11:36:05;;;;;;;26.25;12.90;;;15.00;68.40;;;;;;12084550;28;20047;-75
2021/04/18 11:41:52;;;;;;;26.42;13.52;;;14.80;68.40;;;;;;12078508;28;20055;-74
2021/04/18 11:47:39;;;;;;;24.95;12.32;;;15.00;68.80;;;;;;12075942;28;20063;-73
2021/04/18 11:53:26;;;;;;;22.33;12.38;;;15.30;66.50;;;;;;12086808;28;20150;-77
2021/04/18 11:59:12;;;;;;;25.92;11.27;;;15.30;66.60;;;;;;12084852;28;20048;-78
2021/04/18 12:04:59;;;;;;;21.63;11.73;;;15.40;66.90;;;;;;12085793;28;20101;-74
2021/04/18 12:10:46;;;;;;;23.30;11.82;;;15.30;67.00;;;;;;12083737;28;20078;-72
2021/04/18 12:16:32;;;;;;;23.35;11.93;;;15.30;68.10;;;;;;12078883;28;20047;-73
2021/04/18 12:22:20;;;;;;;23.98;11.93;;;15.60;64.90;;;;;;12074445;28;20998;-73
2021/04/18 12:28:08;;;;;;;23.50;11.45;;;15.90;66.30;;;;;;12077863;28;20048;-73
2021/04/18 12:33:55;;;;;;;22.15;10.85;;;15.60;66.60;;;;;;12075495;28;20074;-72
2021/04/18 12:39:45;;;;;;;21.38;10.98;;;15.50;64.80;;;;;;12076435;28;20051;-72
2021/04/18 12:45:31;;;;;;;23.70;10.50;;;15.50;65.90;;;;;;12078618;28;20122;-71
2021/04/18 12:51:18;;;;;;;22.10;10.55;;;15.90;64.90;;;;;;12078008;28;20075;-72
2021/04/18 12:57:06;;;;;;;21.80;10.02;;;15.90;64.30;;;;;;12076827;28;20055;-72
2021/04/18 13:02:52;;;;;;;17.17;10.05;;;15.90;64.30;;;;;;12077703;28;20044;-72
2021/04/18 13:08:40;;;;;;;20.02;10.20;;;16.30;63.80;;;;;;12071397;28;20047;-72
2021/04/18 13:14:27;;;;;;;18.40;10.32;;;16.40;60.40;;;;;;12075858;28;20048;-72
2021/04/18 13:20:14;;;;;;;19.70;10.80;;;16.60;61.10;;;;;;12074070;28;20120;-77
2021/04/18 13:26:00;;;;;;;22.42;11.65;;;16.40;62.50;;;;;;12075215;28;20056;-71
2021/04/18 13:31:48;;;;;;;19.25;10.30;;;16.30;62.90;;;;;;12077484;28;20062;-72
2021/04/18 13:37:34;;;;;;;25.23;10.55;;;16.20;63.00;;;;;;12080270;28;20084;-72
2021/04/18 13:43:21;;;;;;;22.45;10.75;;;16.10;62.70;;;;;;12079018;28;20524;-71
2021/04/18 13:49:08;;;;;;;23.75;9.82;;;16.10;62.60;;;;;;12083140;28;20055;-73
2021/04/18 13:54:54;;;;;;;23.70;10.70;;;16.30;63.50;;;;;;12084966;28;20052;-72
2021/04/18 14:00:41;;;;;;;17.05;10.40;;;16.20;61.90;;;;;;12080498;28;20036;-72
2021/04/18 14:06:28;;;;;;;23.70;11.27;;;16.00;64.00;;;;;;12082717;28;20056;-71
2021/04/18 14:12:15;;;;;;;19.33;10.45;;;15.40;65.60;;;;;;12083532;28;20040;-70
2021/04/18 14:18:04;;;;;;;18.55;9.57;;;15.30;65.30;;;;;;12082731;28;20316;-73
2021/04/18 14:23:51;;;;;;;24.35;10.77;;;15.30;65.90;;;;;;12081525;28;20545;-72
2021/04/18 14:29:37;;;;;;;17.88;10.32;;;15.30;66.30;;;;;;12082928;28;20056;-71
2021/04/18 14:35:24;;;;;;;20.33;10.38;;;15.10;65.10;;;;;;12080888;28;20066;-70
2021/04/18 14:41:11;;;;;;;19.52;11.18;;;15.30;64.80;;;;;;12084981;28;20040;-71
2021/04/18 14:46:57;;;;;;;22.25;10.48;;;15.50;65.10;;;;;;12083984;28;20055;-71
2021/04/18 14:52:44;;;;;;;21.65;10.27;;;15.10;65.10;;;;;;12085207;28;20049;-69
2021/04/18 14:58:32;;;;;;;20.50;9.52;;;14.90;66.20;;;;;;12081746;28;20044;-71
2021/04/18 15:04:18;;;;;;;20.40;11.38;;;15.00;66.90;;;;;;12081959;28;20053;-71
2021/04/18 15:10:06;;;;;;;19.67;9.90;;;15.20;66.50;;;;;;12080876;28;20044;-71
2021/04/18 15:15:53;;;;;;;19.63;11.30;;;15.20;66.30;;;;;;12083423;28;20105;-71
2021/04/18 15:21:40;;;;;;;23.25;10.63;;;15.40;66.10;;;;;;12081994;28;20052;-72
2021/04/18 15:27:27;;;;;;;18.40;9.35;;;15.40;65.10;;;;;;12080561;28;20056;-74
2021/04/18 15:33:14;;;;;;;19.33;9.25;;;15.50;64.50;;;;;;12082241;28;20052;-71
2021/04/18 15:39:01;;;;;;;18.30;9.55;;;15.70;65.10;;;;;;12080262;28;20094;-71
2021/04/18 15:44:48;;;;;;;105.18;56.03;;;15.60;64.60;;;;;;12079531;28;20422;-73
2021/04/18 15:50:35;;;;;;;19.20;9.27;;;15.60;65.50;;;;;;12074247;28;20064;-71
2021/04/18 15:56:21;;;;;;;19.92;9.65;;;15.40;65.50;;;;;;12079804;28;20052;-70
2021/04/18 16:02:11;;;;;;;19.90;10.88;;;15.40;65.70;;;;;;12080800;28;20048;-70
2021/04/18 16:08:00;;;;;;;19.58;10.70;;;15.00;66.60;;;;;;12076543;28;20055;-73
2021/04/18 16:13:48;;;;;;;19.45;9.60;;;15.10;67.20;;;;;;12080215;28;20059;-72
2021/04/18 16:19:34;;;;;;;21.75;10.73;;;15.00;67.20;;;;;;12080544;28;20058;-72
2021/04/18 16:25:22;;;;;;;20.00;9.40;;;15.10;67.30;;;;;;12076062;28;20060;-73
2021/04/18 16:31:08;;;;;;;21.88;9.02;;;14.90;67.10;;;;;;12074776;28;20059;-75
2021/04/18 16:36:55;;;;;;;24.25;9.10;;;14.90;67.60;;;;;;12077415;28;20055;-72
2021/04/18 16:42:42;;;;;;;25.90;11.35;;;15.00;67.50;;;;;;12079566;28;20063;-74
2021/04/18 16:48:31;;;;;;;20.38;9.20;;;14.90;67.80;;;;;;12078644;28;20063;-72
2021/04/18 16:54:17;;;;;;;23.55;9.50;;;14.90;68.50;;;;;;12080932;28;20113;-73
2021/04/18 17:00:07;;;;;;;21.60;9.57;;;14.80;68.40;;;;;;12067436;28;20052;-72
2021/04/18 17:05:54;;;;;;;20.30;10.63;;;14.90;68.40;;;;;;12077267;28;20435;-71
2021/04/18 17:11:40;;;;;;;18.98;10.35;;;15.00;68.10;;;;;;12079074;28;20399;-74
2021/04/18 17:17:27;;;;;;;15.88;8.48;;;15.00;68.00;;;;;;12088103;28;20056;-73
2021/04/18 17:23:14;;;;;;;20.70;10.23;;;14.90;68.10;;;;;;12087876;28;20056;-74
2021/04/18 17:29:00;;;;;;;19.13;9.10;;;14.80;68.60;;;;;;12087556;28;20044;-73
2021/04/18 17:34:49;;;;;;;17.85;9.07;;;14.90;68.30;;;;;;12080737;28;20507;-73
2021/04/18 17:40:35;;;;;;;16.33;8.48;;;14.90;68.10;;;;;;12085330;28;20058;-71
2021/04/18 17:46:22;;;;;;;15.18;8.63;;;14.70;67.60;;;;;;12080892;28;20045;-79
2021/04/18 17:52:09;;;;;;;22.75;8.95;;;14.60;68.10;;;;;;12087832;28;20047;-73
2021/04/18 17:57:55;;;;;;;16.02;8.60;;;14.90;68.10;;;;;;12087082;28;20071;-74
2021/04/18 18:03:42;;;;;;;17.38;8.88;;;15.00;68.00;;;;;;12086037;28;20769;-73
2021/04/18 18:09:30;;;;;;;19.75;9.82;;;14.80;68.00;;;;;;12088747;28;20048;-74
2021/04/18 18:15:17;;;;;;;20.92;9.10;;;14.70;68.10;;;;;;12083227;28;20055;-74
2021/04/18 18:21:04;;;;;;;23.30;9.55;;;14.70;68.20;;;;;;12083817;28;20136;-75
2021/04/18 18:26:52;;;;;;;14.57;7.65;;;14.80;68.30;;;;;;12085573;28;20070;-74
2021/04/18 18:32:39;;;;;;;19.48;8.50;;;14.70;68.70;;;;;;12087407;28;20071;-75
2021/04/18 18:38:25;;;;;;;24.10;11.18;;;14.70;69.00;;;;;;12088118;28;20059;-74
2021/04/18 18:44:18;;;;;;;19.15;9.57;;;14.60;68.90;;;;;;12085794;28;20056;-75
2021/04/18 18:50:06;;;;;;;19.55;8.10;;;14.60;69.90;;;;;;12087556;28;20222;-73
2021/04/18 18:55:52;;;;;;;19.83;8.57;;;14.50;70.80;;;;;;12084341;28;20047;-74
2021/04/18 19:01:40;;;;;;;15.63;7.85;;;14.40;72.00;;;;;;12082737;28;20097;-74
2021/04/18 19:07:26;;;;;;;14.50;7.47;;;14.30;72.40;;;;;;12081140;28;20048;-74
2021/04/18 19:13:13;;;;;;;14.32;8.10;;;14.20;72.90;;;;;;12084416;28;20143;-74
2021/04/18 19:19:01;;;;;;;16.90;7.65;;;14.00;73.10;;;;;;12082437;28;20045;-74
2021/04/18 19:24:47;;;;;;;17.27;8.40;;;13.80;73.20;;;;;;12081079;28;20045;-75
2021/04/18 19:30:36;;;;;;;16.90;8.40;;;13.60;73.10;;;;;;12078603;28;20046;-75
2021/04/18 19:36:23;;;;;;;18.25;8.32;;;13.40;73.70;;;;;;12080978;28;20048;-73
2021/04/18 19:42:10;;;;;;;15.52;7.30;;;13.30;74.20;;;;;;12079480;28;20051;-73
2021/04/18 19:47:56;;;;;;;18.63;8.48;;;13.20;73.80;;;;;;12079486;28;20067;-73
2021/04/18 19:53:44;;;;;;;15.65;7.93;;;13.10;75.50;;;;;;12079900;28;20056;-73
2021/04/18 19:59:33;;;;;;;19.85;8.30;;;13.10;75.10;;;;;;12080347;28;20514;-74
2021/04/18 20:05:23;;;;;;;16.67;8.40;;;12.90;75.70;;;;;;12081080;28;20044;-74
2021/04/18 20:11:10;;;;;;;21.40;8.93;;;12.90;75.90;;;;;;12080988;28;20529;-74
2021/04/18 20:16:57;;;;;;;21.38;9.00;;;12.80;75.90;;;;;;12077505;28;20067;-73
2021/04/18 20:22:44;;;;;;;19.58;9.20;;;12.70;77.00;;;;;;12077468;28;20048;-74
2021/04/18 20:28:31;;;;;;;19.35;8.90;;;12.70;76.70;;;;;;12077647;28;20055;-70
2021/04/18 20:34:17;;;;;;;19.05;9.63;;;12.60;76.90;;;;;;12082487;28;20047;-70
2021/04/18 20:40:05;;;;;;;16.65;9.25;;;12.60;77.20;;;;;;12077032;28;20455;-70
2021/04/18 20:45:53;;;;;;;18.05;9.43;;;12.60;77.30;;;;;;12080100;28;20721;-70
2021/04/18 20:51:40;;;;;;;21.27;11.38;;;12.60;77.20;;;;;;12081697;28;20869;-71
2021/04/18 20:57:26;;;;;;;23.77;11.15;;;12.50;77.80;;;;;;12081186;28;20067;-70
2021/04/18 21:03:13;;;;;;;22.90;10.30;;;12.40;77.90;;;;;;12081522;28;20047;-71
2021/04/18 21:09:00;;;;;;;23.95;11.20;;;12.40;78.20;;;;;;12080576;28;20047;-70
2021/04/18 21:14:46;;;;;;;24.42;12.77;;;12.30;78.50;;;;;;12079334;28;20063;-69
2021/04/18 21:20:34;;;;;;;26.80;12.07;;;12.30;78.60;;;;;;12078479;28;20036;-70
2021/04/18 21:26:20;;;;;;;22.95;11.85;;;12.20;78.70;;;;;;12077261;28;20052;-70
